createdAt,value
2023-06-12T00:00:52.565Z,38.26
2023-06-12T00:01:52.504Z,38.22
2023-06-12T00:02:52.648Z,38.25
2023-06-12T00:03:52.669Z,38.23
2023-06-12T00:04:52.673Z,38.22
2023-06-12T00:05:52.612Z,38.25
2023-06-12T00:06:52.658Z,38.25
2023-06-12T00:07:52.675Z,38.22
2023-06-12T00:08:52.733Z,38.26
2023-06-12T00:09:52.746Z,38.24
2023-06-12T00:10:52.782Z,38.26
2023-06-12T00:11:52.852Z,38.27
2023-06-12T00:12:52.901Z,38.24
2023-06-12T00:13:52.916Z,38.24
2023-06-12T00:14:52.975Z,38.24
2023-06-12T00:15:53.045Z,38.23
2023-06-12T00:16:53.071Z,38.24
2023-06-12T00:17:53.122Z,38.24
2023-06-12T00:18:53.180Z,38.23
2023-06-12T00:19:53.204Z,38.24
2023-06-12T00:20:53.263Z,38.27
2023-06-12T00:21:53.297Z,38.23
2023-06-12T00:22:53.338Z,38.24
2023-06-12T00:23:53.398Z,38.23
2023-06-12T00:24:53.435Z,38.29
2023-06-12T00:25:53.489Z,38.24
2023-06-12T00:26:53.548Z,38.23
2023-06-12T00:27:53.601Z,38.22
2023-06-12T00:28:53.667Z,38.22
2023-06-12T00:29:53.688Z,38.26
2023-06-12T00:30:53.743Z,38.23
2023-06-12T00:31:53.847Z,38.23
2023-06-12T00:32:53.903Z,38.24
2023-06-12T00:33:53.910Z,38.23
2023-06-12T00:34:53.965Z,38.24
2023-06-12T00:35:54.949Z,38.23
2023-06-12T00:36:54.146Z,38.22
2023-06-12T00:37:54.130Z,38.20
2023-06-12T00:38:54.179Z,38.23
2023-06-12T00:39:54.221Z,38.16
2023-06-12T00:40:54.287Z,38.23
2023-06-12T00:41:54.331Z,38.19
2023-06-12T00:42:54.390Z,38.15
2023-06-12T00:43:54.436Z,38.26
2023-06-12T00:44:54.514Z,38.19
2023-06-12T00:45:54.602Z,38.20
2023-06-12T00:46:54.590Z,38.18
2023-06-12T00:47:54.752Z,38.15
2023-06-12T00:48:54.743Z,38.22
2023-06-12T00:49:54.767Z,38.19
2023-06-12T00:50:54.822Z,38.15
2023-06-12T00:51:54.878Z,38.20
2023-06-12T00:52:54.939Z,38.16
2023-06-12T00:53:54.986Z,38.23
2023-06-12T00:54:55.042Z,38.16
2023-06-12T00:55:55.100Z,38.16
2023-06-12T00:56:55.164Z,38.19
2023-06-12T00:57:55.225Z,38.16
2023-06-12T00:58:55.283Z,38.15
2023-06-12T00:59:55.338Z,38.16
2023-06-12T01:00:55.532Z,38.14
2023-06-12T01:01:55.450Z,38.16
2023-06-12T01:02:55.694Z,38.15
2023-06-12T01:03:55.574Z,38.12
2023-06-12T01:04:55.636Z,38.13
2023-06-12T01:05:55.705Z,38.14
2023-06-12T01:06:55.760Z,38.11
2023-06-12T01:07:55.858Z,38.13
2023-06-12T01:08:55.891Z,38.11
2023-06-12T01:09:55.945Z,38.12
2023-06-12T01:10:56.010Z,38.08
2023-06-12T01:11:56.076Z,38.11
2023-06-12T01:12:56.166Z,38.09
2023-06-12T01:13:56.235Z,38.09
2023-06-12T01:14:56.270Z,38.06
2023-06-12T01:15:56.331Z,38.11
2023-06-12T01:16:56.428Z,38.08
2023-06-12T01:17:56.481Z,38.07
2023-06-12T01:18:56.509Z,38.08
2023-06-12T01:19:56.584Z,38.06
2023-06-12T01:20:56.630Z,38.08
2023-06-12T01:21:56.701Z,38.03
2023-06-12T01:22:56.768Z,38.06
2023-06-12T01:23:56.867Z,38.08
2023-06-12T01:24:56.894Z,38.06
2023-06-12T01:25:56.985Z,38.06
2023-06-12T01:26:57.021Z,38.04
2023-06-12T01:27:57.072Z,38.03
2023-06-12T01:28:57.131Z,38.06
2023-06-12T01:29:57.206Z,38.01
2023-06-12T01:30:57.269Z,37.98
2023-06-12T01:31:57.371Z,38.02
2023-06-12T01:32:57.531Z,38.04
2023-06-12T01:33:57.460Z,37.99
2023-06-12T01:34:57.597Z,38.01
2023-06-12T01:35:57.591Z,37.98
2023-06-12T01:36:57.661Z,38.03
2023-06-12T01:37:57.731Z,37.99
2023-06-12T01:38:57.797Z,38.02
2023-06-12T01:39:57.865Z,38.03
2023-06-12T01:40:57.920Z,37.99
2023-06-12T01:41:57.981Z,37.97
2023-06-12T01:42:58.060Z,38.01
2023-06-12T01:43:58.119Z,38.01
2023-06-12T01:44:58.179Z,38.02
2023-06-12T01:45:58.247Z,37.99
2023-06-12T01:46:58.399Z,37.99
2023-06-12T01:47:58.399Z,37.99
2023-06-12T01:48:58.465Z,37.98
2023-06-12T01:49:58.505Z,37.96
2023-06-12T01:50:58.573Z,37.99
2023-06-12T01:51:58.634Z,37.97
2023-06-12T01:52:58.701Z,37.98
2023-06-12T01:53:58.775Z,38.00
2023-06-12T01:54:58.837Z,37.97
2023-06-12T01:55:58.897Z,37.99
2023-06-12T01:56:58.953Z,37.96
2023-06-12T01:57:59.018Z,37.92
2023-06-12T01:58:59.089Z,37.96
2023-06-12T01:59:59.144Z,37.92
2023-06-12T02:00:59.210Z,37.94
2023-06-12T02:01:59.348Z,37.94
2023-06-12T02:02:59.362Z,37.95
2023-06-12T02:03:59.464Z,37.92
2023-06-12T02:04:59.488Z,37.94
2023-06-12T02:05:59.536Z,37.91
2023-06-12T02:06:59.636Z,37.92
2023-06-12T02:08:00.482Z,37.92
2023-06-12T02:08:59.719Z,37.91
2023-06-12T02:09:59.778Z,37.95
2023-06-12T02:10:59.840Z,37.95
2023-06-12T02:11:59.932Z,37.91
2023-06-12T02:12:59.965Z,37.92
2023-06-12T02:14:01.000Z,37.93
2023-06-12T02:15:00.174Z,37.92
2023-06-12T02:16:00.202Z,37.90
2023-06-12T02:17:00.208Z,37.92
2023-06-12T02:18:00.349Z,37.88
2023-06-12T02:19:00.339Z,37.87
2023-06-12T02:20:00.445Z,37.88
2023-06-12T02:21:00.497Z,37.91
2023-06-12T02:22:00.528Z,37.86
2023-06-12T02:23:00.604Z,37.88
2023-06-12T02:24:00.733Z,37.87
2023-06-12T02:25:00.742Z,37.87
2023-06-12T02:26:00.822Z,37.87
2023-06-12T02:27:00.877Z,37.87
2023-06-12T02:28:00.973Z,37.87
2023-06-12T02:29:01.046Z,37.85
2023-06-12T02:30:01.174Z,37.84
2023-06-12T02:31:01.162Z,37.87
2023-06-12T02:32:01.271Z,37.88
2023-06-12T02:33:01.374Z,37.86
2023-06-12T02:34:01.369Z,37.83
2023-06-12T02:35:01.433Z,37.86
2023-06-12T02:36:01.513Z,37.84
2023-06-12T02:37:01.595Z,37.79
2023-06-12T02:38:01.643Z,37.83
2023-06-12T02:39:01.711Z,37.85
2023-06-12T02:40:01.778Z,37.84
2023-06-12T02:41:01.862Z,37.86
2023-06-12T02:42:01.910Z,37.84
2023-06-12T02:43:01.979Z,37.87
2023-06-12T02:44:02.052Z,37.79
2023-06-12T02:45:02.142Z,37.85
2023-06-12T02:46:02.214Z,37.81
2023-06-12T02:47:02.272Z,37.83
2023-06-12T02:48:02.372Z,37.81
2023-06-12T02:49:02.404Z,37.79
2023-06-12T02:50:02.482Z,37.87
2023-06-12T02:51:02.624Z,37.84
2023-06-12T02:52:02.615Z,37.81
2023-06-12T02:53:02.709Z,37.83
2023-06-12T02:54:02.790Z,37.80
2023-06-12T02:55:02.818Z,37.80
2023-06-12T02:56:02.891Z,37.85
2023-06-12T02:57:02.944Z,37.85
2023-06-12T02:58:03.027Z,37.83
2023-06-12T02:59:03.083Z,37.79
2023-06-12T03:00:03.166Z,37.85
2023-06-12T03:01:03.258Z,37.83
2023-06-12T03:02:03.324Z,37.80
2023-06-12T03:03:03.430Z,37.79
2023-06-12T03:04:03.512Z,37.81
2023-06-12T03:05:03.492Z,37.76
2023-06-12T03:06:03.557Z,37.84
2023-06-12T03:07:03.621Z,37.80
2023-06-12T03:08:03.690Z,37.77
2023-06-12T03:09:03.792Z,37.76
2023-06-12T03:10:03.827Z,37.74
2023-06-12T03:11:03.889Z,37.73
2023-06-12T03:12:03.964Z,37.75
2023-06-12T03:13:04.032Z,37.71
2023-06-12T03:14:04.103Z,37.76
2023-06-12T03:15:04.159Z,37.75
2023-06-12T03:16:04.277Z,37.78
2023-06-12T03:17:04.298Z,37.74
2023-06-12T03:18:04.386Z,37.80
2023-06-12T03:19:04.423Z,37.79
2023-06-12T03:20:04.496Z,37.73
2023-06-12T03:21:04.565Z,37.76
2023-06-12T03:22:04.632Z,37.75
2023-06-12T03:23:04.708Z,37.73
2023-06-12T03:24:04.820Z,37.72
2023-06-12T03:25:05.070Z,37.72
2023-06-12T03:26:04.898Z,37.72
2023-06-12T03:27:05.097Z,37.75
2023-06-12T03:28:05.181Z,37.70
2023-06-12T03:29:05.124Z,37.71
2023-06-12T03:30:05.187Z,37.68
2023-06-12T03:31:05.389Z,37.75
2023-06-12T03:32:05.384Z,37.66
2023-06-12T03:33:05.425Z,37.72
2023-06-12T03:34:05.465Z,37.71
2023-06-12T03:35:05.534Z,37.73
2023-06-12T03:36:05.608Z,37.72
2023-06-12T03:37:05.688Z,37.66
2023-06-12T03:38:05.765Z,37.67
2023-06-12T03:39:05.859Z,37.67
2023-06-12T03:40:05.901Z,37.67
2023-06-12T03:41:05.992Z,37.68
2023-06-12T03:42:06.061Z,37.68
2023-06-12T03:43:06.123Z,37.67
2023-06-12T03:44:06.190Z,37.66
2023-06-12T03:45:06.253Z,37.67
2023-06-12T03:46:06.321Z,37.64
2023-06-12T03:47:06.584Z,37.66
2023-06-12T03:48:06.499Z,37.63
2023-06-12T03:49:06.543Z,37.64
2023-06-12T03:50:06.618Z,37.68
2023-06-12T03:51:06.680Z,37.66
2023-06-12T03:52:08.742Z,37.68
2023-06-12T03:53:06.760Z,37.62
2023-06-12T03:54:06.776Z,37.63
2023-06-12T03:55:06.861Z,37.61
2023-06-12T03:56:06.805Z,37.62
2023-06-12T03:57:06.835Z,37.59
2023-06-12T03:58:06.812Z,37.62
2023-06-12T03:59:06.817Z,37.63
2023-06-12T04:00:06.841Z,37.61
2023-06-12T04:01:06.855Z,37.55
2023-06-12T04:02:06.885Z,37.61
2023-06-12T04:03:06.941Z,37.62
2023-06-12T04:04:07.005Z,37.57
2023-06-12T04:05:06.921Z,37.58
2023-06-12T04:06:06.921Z,37.54
2023-06-12T04:07:06.934Z,37.54
2023-06-12T04:08:06.984Z,37.52
2023-06-12T04:09:06.975Z,37.56
2023-06-12T04:10:07.011Z,37.49
2023-06-12T04:11:07.002Z,37.54
2023-06-12T04:12:07.018Z,37.56
2023-06-12T04:13:07.059Z,37.54
2023-06-12T04:14:07.036Z,37.57
2023-06-12T04:15:07.056Z,37.51
2023-06-12T04:16:07.088Z,37.49
2023-06-12T04:17:07.062Z,37.52
2023-06-12T04:18:07.085Z,37.51
2023-06-12T04:19:07.125Z,37.54
2023-06-12T04:20:07.186Z,37.49
2023-06-12T04:21:07.263Z,37.53
2023-06-12T04:22:07.357Z,37.53
2023-06-12T04:23:07.404Z,37.48
2023-06-12T04:24:07.484Z,37.48
2023-06-12T04:25:07.579Z,37.49
2023-06-12T04:26:07.642Z,37.49
2023-06-12T04:27:07.686Z,37.48
2023-06-12T04:28:07.819Z,37.52
2023-06-12T04:29:07.873Z,37.47
2023-06-12T04:30:07.929Z,37.46
2023-06-12T04:31:08.105Z,37.47
2023-06-12T04:32:08.219Z,37.46
2023-06-12T04:33:08.221Z,37.48
2023-06-12T04:34:08.214Z,37.46
2023-06-12T04:35:08.288Z,37.44
2023-06-12T04:36:08.380Z,37.47
2023-06-12T04:37:08.431Z,37.48
2023-06-12T04:38:08.509Z,37.44
2023-06-12T04:39:08.580Z,37.42
2023-06-12T04:40:08.662Z,37.43
2023-06-12T04:41:08.734Z,37.40
2023-06-12T04:42:08.799Z,37.39
2023-06-12T04:43:08.879Z,37.44
2023-06-12T04:44:08.961Z,37.43
2023-06-12T04:45:09.050Z,37.46
2023-06-12T04:46:09.095Z,37.40
2023-06-12T04:47:09.167Z,37.39
2023-06-12T04:48:09.290Z,37.40
2023-06-12T04:49:09.384Z,37.42
2023-06-12T04:50:09.608Z,37.42
2023-06-12T04:51:09.446Z,37.39
2023-06-12T04:52:09.524Z,37.40
2023-06-12T04:53:09.603Z,37.37
2023-06-12T04:54:09.649Z,37.38
2023-06-12T04:55:09.719Z,37.38
2023-06-12T04:56:09.786Z,37.39
2023-06-12T04:57:09.856Z,37.35
2023-06-12T04:58:09.962Z,37.39
2023-06-12T04:59:10.055Z,37.38
2023-06-12T05:00:10.505Z,37.35
2023-06-12T05:01:10.211Z,37.37
2023-06-12T05:02:10.213Z,37.34
2023-06-12T05:03:10.417Z,37.33
2023-06-12T05:04:10.418Z,37.37
2023-06-12T05:05:10.432Z,37.34
2023-06-12T05:06:10.517Z,37.30
2023-06-12T05:07:10.586Z,37.38
2023-06-12T05:08:10.668Z,37.37
2023-06-12T05:09:10.738Z,37.37
2023-06-12T05:10:11.007Z,37.38
2023-06-12T05:11:10.869Z,37.36
2023-06-12T05:12:10.946Z,37.34
2023-06-12T05:13:11.021Z,37.30
2023-06-12T05:14:11.101Z,37.29
2023-06-12T05:15:11.273Z,37.34
2023-06-12T05:16:11.236Z,37.32
2023-06-12T05:17:11.464Z,37.33
2023-06-12T05:18:11.446Z,37.33
2023-06-12T05:19:11.450Z,37.32
2023-06-12T05:20:11.920Z,37.32
2023-06-12T05:21:11.599Z,37.30
2023-06-12T05:22:12.073Z,37.28
2023-06-12T05:23:12.069Z,37.30
2023-06-12T05:24:11.838Z,37.30
2023-06-12T05:25:11.904Z,37.30
2023-06-12T05:26:11.942Z,37.30
2023-06-12T05:27:12.013Z,37.33
2023-06-12T05:28:12.576Z,37.34
2023-06-12T05:29:12.157Z,37.36
2023-06-12T05:30:12.471Z,37.25
2023-06-12T05:31:12.373Z,37.36
2023-06-12T05:32:12.374Z,37.28
2023-06-12T05:33:12.731Z,37.34
2023-06-12T05:34:12.518Z,37.32
2023-06-12T05:35:12.588Z,37.35
2023-06-12T05:36:12.655Z,37.34
2023-06-12T05:37:12.726Z,37.35
2023-06-12T05:38:12.805Z,37.36
2023-06-12T05:39:14.658Z,37.35
2023-06-12T05:40:13.085Z,37.40
2023-06-12T05:41:12.894Z,37.45
2023-06-12T05:42:12.924Z,37.44
2023-06-12T05:43:13.096Z,37.40
2023-06-12T05:44:12.952Z,37.41
2023-06-12T05:45:12.949Z,37.40
2023-06-12T05:46:13.026Z,37.48
2023-06-12T05:47:12.978Z,37.48
2023-06-12T05:48:13.108Z,37.45
2023-06-12T05:49:13.225Z,37.58
2023-06-12T05:50:13.926Z,37.62
2023-06-12T05:51:13.059Z,37.66
2023-06-12T05:52:13.063Z,37.64
2023-06-12T05:53:13.099Z,37.68
2023-06-12T05:54:13.120Z,37.71
2023-06-12T05:55:21.017Z,37.67
2023-06-12T05:56:16.340Z,37.79
2023-06-12T05:57:13.204Z,37.90
2023-06-12T05:58:20.978Z,38.04
2023-06-12T05:59:28.780Z,38.06
2023-06-12T06:00:16.488Z,37.94
2023-06-12T06:01:28.813Z,38.02
2023-06-12T06:03:13.620Z,38.01
2023-06-12T06:05:16.814Z,38.05
2023-06-12T06:07:20.670Z,37.98
2023-06-12T06:08:13.288Z,38.02
2023-06-12T06:09:13.966Z,37.98
2023-06-12T06:10:16.508Z,38.02
2023-06-12T06:11:13.458Z,38.01
2023-06-12T06:13:16.724Z,37.99
2023-06-12T06:14:14.698Z,38.03
2023-06-12T06:15:13.938Z,38.06
2023-06-12T06:16:13.819Z,38.04
2023-06-12T06:17:16.823Z,38.03
2023-06-12T06:19:13.654Z,38.04
2023-06-12T06:20:14.523Z,38.07
2023-06-12T06:21:13.770Z,38.06
2023-06-12T06:22:13.537Z,38.02
2023-06-12T06:23:17.042Z,38.02
2023-06-12T06:24:13.661Z,38.01
2023-06-12T06:25:14.017Z,38.01
2023-06-12T06:26:21.220Z,38.00
2023-06-12T06:27:13.540Z,37.98
2023-06-12T06:28:13.657Z,38.03
2023-06-12T06:29:17.035Z,37.99
2023-06-12T06:30:16.953Z,37.95
2023-06-12T06:31:13.666Z,37.97
2023-06-12T06:32:13.916Z,38.01
2023-06-12T06:33:13.810Z,38.00
2023-06-12T06:34:13.719Z,37.97
2023-06-12T06:35:14.112Z,37.99
2023-06-12T06:36:13.625Z,37.97
2023-06-12T06:37:14.194Z,37.94
2023-06-12T06:38:13.913Z,37.95
2023-06-12T06:39:13.935Z,37.95
2023-06-12T06:40:21.527Z,37.97
2023-06-12T06:41:13.745Z,37.98
2023-06-12T06:42:13.724Z,37.92
2023-06-12T06:43:14.213Z,37.96
2023-06-12T06:44:13.783Z,37.96
2023-06-12T06:45:14.381Z,37.95
2023-06-12T06:46:14.032Z,37.94
2023-06-12T06:47:13.858Z,37.91
2023-06-12T06:48:21.752Z,37.92
2023-06-12T06:49:21.505Z,37.95
2023-06-12T06:51:13.810Z,37.94
2023-06-12T06:54:13.920Z,37.91
2023-06-12T06:55:14.538Z,37.95
2023-06-12T06:56:13.774Z,37.96
2023-06-12T06:57:13.783Z,37.90
2023-06-12T06:58:13.829Z,37.92
2023-06-12T06:59:14.104Z,37.92
2023-06-12T07:00:14.798Z,37.92
2023-06-12T07:01:13.899Z,37.89
2023-06-12T07:02:13.838Z,37.90
2023-06-12T07:03:14.257Z,37.87
2023-06-12T07:04:13.964Z,37.92
2023-06-12T07:05:14.203Z,37.92
2023-06-12T07:06:14.930Z,37.89
2023-06-12T07:07:13.989Z,37.89
2023-06-12T07:08:14.113Z,37.87
2023-06-12T07:09:14.106Z,37.89
2023-06-12T07:10:14.646Z,37.87
2023-06-12T07:11:14.226Z,37.86
2023-06-12T07:12:14.281Z,37.87
2023-06-12T07:13:14.621Z,37.87
2023-06-12T07:14:17.598Z,37.81
2023-06-12T07:15:14.706Z,37.78
2023-06-12T07:16:14.437Z,37.85
2023-06-12T07:17:14.414Z,37.85
2023-06-12T07:18:14.424Z,37.84
2023-06-12T07:19:14.629Z,37.81
2023-06-12T07:20:14.442Z,37.86
2023-06-12T07:21:14.480Z,37.85
2023-06-12T07:22:14.451Z,37.80
2023-06-12T07:23:14.462Z,37.80
2023-06-12T07:24:14.846Z,37.81
2023-06-12T07:25:14.746Z,37.77
2023-06-12T07:26:27.711Z,37.81
2023-06-12T07:27:14.458Z,37.84
2023-06-12T07:28:14.657Z,37.81
2023-06-12T07:29:14.637Z,37.81
2023-06-12T07:30:15.463Z,37.80
2023-06-12T07:31:14.457Z,37.80
2023-06-12T07:32:22.070Z,37.84
2023-06-12T07:33:14.660Z,37.81
2023-06-12T07:34:14.489Z,37.76
2023-06-12T07:35:21.886Z,37.77
2023-06-12T07:36:14.494Z,37.80
2023-06-12T07:37:14.843Z,37.84
2023-06-12T07:38:47.013Z,37.76
2023-06-12T07:39:14.694Z,37.73
2023-06-12T07:40:14.510Z,37.80
2023-06-12T07:41:14.654Z,37.88
2023-06-12T07:42:15.535Z,38.05
2023-06-12T07:43:14.548Z,38.05
2023-06-12T07:44:14.595Z,38.15
2023-06-12T07:45:14.819Z,38.26
2023-06-12T07:46:14.810Z,38.35
2023-06-12T07:47:14.796Z,38.43
2023-06-12T07:48:14.660Z,38.43
2023-06-12T07:49:14.648Z,38.44
2023-06-12T07:50:14.800Z,38.10
2023-06-12T07:51:14.649Z,37.77
2023-06-12T07:52:14.826Z,37.81
2023-06-12T07:53:32.322Z,37.00
2023-06-12T07:54:17.856Z,36.57
2023-06-12T07:55:14.788Z,37.78
2023-06-12T07:56:14.649Z,37.91
2023-06-12T07:57:18.215Z,38.13
2023-06-12T07:58:22.046Z,38.34
2023-06-12T08:00:30.224Z,38.52
2023-06-12T08:01:14.631Z,38.66
2023-06-12T08:02:14.650Z,38.66
2023-06-12T08:03:30.333Z,38.84
2023-06-12T08:04:14.686Z,38.93
2023-06-12T08:05:14.955Z,39.12
2023-06-12T08:06:14.708Z,39.13
2023-06-12T08:07:15.703Z,39.38
2023-06-12T08:08:14.639Z,39.40
2023-06-12T08:09:14.628Z,39.64
2023-06-12T08:10:14.626Z,39.78
2023-06-12T08:11:14.716Z,39.87
2023-06-12T08:12:15.661Z,39.91
2023-06-12T08:13:15.191Z,40.12
2023-06-12T08:14:14.665Z,40.15
2023-06-12T08:15:14.944Z,40.17
2023-06-12T08:16:14.813Z,40.41
2023-06-12T08:17:15.179Z,40.39
2023-06-12T08:18:14.972Z,40.47
2023-06-12T08:19:15.009Z,40.48
2023-06-12T08:20:15.042Z,40.51
2023-06-12T08:21:15.096Z,40.63
2023-06-12T08:22:15.184Z,40.81
2023-06-12T08:23:16.643Z,40.77
2023-06-12T08:24:15.354Z,40.89
2023-06-12T08:25:18.513Z,41.05
2023-06-12T08:26:15.332Z,40.97
2023-06-12T08:27:15.335Z,41.20
2023-06-12T08:28:16.700Z,41.21
2023-06-12T08:29:15.410Z,41.35
2023-06-12T08:30:18.546Z,41.46
2023-06-12T08:31:15.383Z,41.64
2023-06-12T08:32:15.353Z,41.70
2023-06-12T08:33:15.451Z,41.71
2023-06-12T08:34:15.661Z,41.67
2023-06-12T08:35:15.754Z,41.67
2023-06-12T08:36:15.668Z,41.76
2023-06-12T08:37:15.362Z,41.97
2023-06-12T08:38:15.857Z,42.15
2023-06-12T08:39:15.364Z,42.25
2023-06-12T08:40:15.361Z,42.30
2023-06-12T08:41:15.702Z,42.32
2023-06-12T08:42:22.786Z,42.29
2023-06-12T08:43:16.663Z,42.43
2023-06-12T08:44:15.385Z,42.40
2023-06-12T08:45:23.123Z,42.14
2023-06-12T08:46:15.682Z,41.91
2023-06-12T08:48:30.970Z,41.65
2023-06-12T08:49:18.579Z,41.76
2023-06-12T08:50:18.572Z,41.76
2023-06-12T08:51:15.410Z,41.54
2023-06-12T08:54:15.414Z,41.35
2023-06-12T08:56:15.413Z,41.27
2023-06-12T08:57:15.419Z,41.19
2023-06-12T08:58:15.438Z,41.11
2023-06-12T08:59:15.926Z,41.08
2023-06-12T09:00:15.442Z,41.01
2023-06-12T09:01:15.488Z,41.02
2023-06-12T09:02:15.834Z,40.91
2023-06-12T09:03:15.737Z,40.84
2023-06-12T09:04:15.474Z,40.80
2023-06-12T09:05:15.985Z,40.80
2023-06-12T09:06:15.420Z,40.75
2023-06-12T09:07:15.415Z,40.69
2023-06-12T09:08:15.444Z,40.65
2023-06-12T09:09:15.420Z,40.62
2023-06-12T09:10:15.615Z,40.38
2023-06-12T09:11:15.441Z,40.42
2023-06-12T09:12:18.672Z,40.35
2023-06-12T09:13:15.676Z,40.26
2023-06-12T09:14:15.442Z,40.21
2023-06-12T09:15:15.450Z,40.16
2023-06-12T09:16:24.248Z,40.14
2023-06-12T09:17:31.068Z,40.08
2023-06-12T09:18:15.527Z,40.02
2023-06-12T09:19:15.685Z,39.90
2023-06-12T09:20:22.355Z,39.79
2023-06-12T09:21:15.717Z,39.83
2023-06-12T09:22:15.458Z,39.74
2023-06-12T09:23:15.451Z,39.79
2023-06-12T09:24:15.701Z,39.77
2023-06-12T09:25:15.449Z,39.75
2023-06-12T09:26:16.411Z,39.38
2023-06-12T09:27:15.430Z,39.01
2023-06-12T09:28:15.431Z,39.07
2023-06-12T09:29:15.693Z,38.44
2023-06-12T09:30:15.428Z,38.21
2023-06-12T09:31:22.848Z,38.59
2023-06-12T09:32:15.485Z,38.35
2023-06-12T09:33:15.727Z,38.03
2023-06-12T09:34:15.697Z,37.72
2023-06-12T09:35:15.612Z,37.35
2023-06-12T09:36:18.678Z,37.36
2023-06-12T09:38:31.078Z,38.07
2023-06-12T09:39:18.613Z,38.28
2023-06-12T09:40:19.635Z,38.25
2023-06-12T09:41:22.873Z,37.98
2023-06-12T09:42:15.401Z,38.25
2023-06-12T09:43:18.891Z,38.09
2023-06-12T09:44:15.726Z,37.18
2023-06-12T09:45:15.472Z,37.81
2023-06-12T09:46:15.390Z,38.04
2023-06-12T09:47:15.373Z,37.86
2023-06-12T09:48:15.718Z,38.08
2023-06-12T09:49:15.380Z,38.09
2023-06-12T09:50:15.377Z,38.07
2023-06-12T09:51:16.367Z,38.14
2023-06-12T09:52:18.575Z,38.19
2023-06-12T09:53:15.693Z,38.16
2023-06-12T09:54:15.382Z,37.95
2023-06-12T09:55:15.698Z,37.70
2023-06-12T09:56:15.422Z,38.01
2023-06-12T09:57:15.383Z,38.03
2023-06-12T09:58:15.382Z,37.75
2023-06-12T09:59:15.397Z,37.82
2023-06-12T10:00:15.454Z,37.98
2023-06-12T10:01:15.438Z,37.99
2023-06-12T10:02:15.432Z,37.94
2023-06-12T10:03:15.414Z,38.01
2023-06-12T10:04:15.542Z,37.99
2023-06-12T10:05:15.447Z,37.99
2023-06-12T10:06:15.430Z,38.00
2023-06-12T10:07:15.439Z,38.04
2023-06-12T10:08:25.632Z,38.03
2023-06-12T10:09:16.422Z,38.06
2023-06-12T10:10:15.424Z,38.03
2023-06-12T10:11:15.401Z,38.03
2023-06-12T10:12:15.394Z,38.06
2023-06-12T10:13:15.402Z,38.05
2023-06-12T10:14:14.769Z,37.72
2023-06-12T10:15:15.857Z,37.89
2023-06-12T10:16:15.435Z,37.98
2023-06-12T10:17:15.417Z,37.98
2023-06-12T10:18:15.501Z,37.96
2023-06-12T10:19:15.711Z,37.40
2023-06-12T10:20:15.817Z,37.63
2023-06-12T10:21:18.747Z,37.58
2023-06-12T10:22:16.532Z,37.50
2023-06-12T10:23:15.537Z,37.37
2023-06-12T10:24:15.780Z,37.15
2023-06-12T10:25:16.527Z,37.10
2023-06-12T10:26:15.709Z,37.15
2023-06-12T10:27:15.499Z,37.20
2023-06-12T10:28:15.534Z,37.25
2023-06-12T10:29:15.715Z,37.21
2023-06-12T10:30:16.967Z,37.18
2023-06-12T10:31:15.745Z,37.05
2023-06-12T10:32:15.706Z,37.00
2023-06-12T10:33:15.699Z,36.96
2023-06-12T10:34:15.644Z,36.98
2023-06-12T10:35:15.672Z,36.97
2023-06-12T10:36:15.797Z,36.96
2023-06-12T10:37:15.708Z,37.00
2023-06-12T10:38:18.899Z,36.99
2023-06-12T10:39:15.677Z,36.94
2023-06-12T10:40:17.555Z,36.84
2023-06-12T10:41:15.714Z,36.82
2023-06-12T10:42:15.673Z,36.68
2023-06-12T10:43:15.690Z,36.68
2023-06-12T10:44:15.672Z,36.56
2023-06-12T10:45:15.670Z,36.52
2023-06-12T10:46:15.678Z,36.58
2023-06-12T10:47:15.664Z,36.73
2023-06-12T10:48:16.137Z,36.69
2023-06-12T10:49:15.702Z,36.65
2023-06-12T10:50:16.008Z,36.55
2023-06-12T10:51:15.684Z,36.54
2023-06-12T10:52:15.716Z,36.46
2023-06-12T10:53:15.735Z,36.33
2023-06-12T10:54:15.725Z,36.32
2023-06-12T10:55:15.695Z,36.24
2023-06-12T10:56:15.757Z,36.27
2023-06-12T10:57:15.676Z,36.14
2023-06-12T10:58:15.762Z,36.23
2023-06-12T10:59:15.680Z,36.16
2023-06-12T11:00:16.060Z,36.10
2023-06-12T11:01:15.831Z,36.09
2023-06-12T11:02:15.782Z,35.97
2023-06-12T11:03:15.926Z,36.00
2023-06-12T11:04:15.794Z,36.01
2023-06-12T11:05:16.035Z,36.00
2023-06-12T11:06:15.705Z,35.97
2023-06-12T11:07:15.676Z,35.91
2023-06-12T11:08:15.817Z,35.98
2023-06-12T11:09:15.746Z,35.89
2023-06-12T11:10:15.752Z,35.70
2023-06-12T11:11:15.668Z,35.82
2023-06-12T11:12:15.650Z,35.71
2023-06-12T11:13:15.761Z,35.69
2023-06-12T11:14:15.823Z,35.70
2023-06-12T11:15:15.762Z,35.69
2023-06-12T11:16:15.652Z,35.69
2023-06-12T11:17:15.732Z,35.75
2023-06-12T11:18:15.857Z,35.70
2023-06-12T11:19:16.746Z,35.62
2023-06-12T11:20:16.751Z,35.59
2023-06-12T11:21:15.746Z,35.57
2023-06-12T11:22:15.812Z,35.50
2023-06-12T11:23:15.857Z,35.50
2023-06-12T11:24:16.038Z,35.39
2023-06-12T11:25:16.707Z,35.46
2023-06-12T11:26:17.388Z,35.51
2023-06-12T11:27:15.948Z,35.47
2023-06-12T11:28:16.266Z,35.56
2023-06-12T11:29:18.150Z,35.61
2023-06-12T11:30:31.505Z,35.73
2023-06-12T11:31:16.256Z,35.74
2023-06-12T11:32:15.921Z,35.73
2023-06-12T11:33:16.278Z,35.56
2023-06-12T11:34:16.253Z,35.55
2023-06-12T11:35:15.896Z,35.60
2023-06-12T11:36:15.878Z,35.58
2023-06-12T11:37:15.873Z,35.52
2023-06-12T11:40:15.227Z,35.47
2023-06-12T11:41:16.252Z,35.32
2023-06-12T11:42:15.855Z,35.37
2023-06-12T11:43:15.883Z,35.40
2023-06-12T11:44:16.247Z,35.45
2023-06-12T11:45:15.853Z,35.39
2023-06-12T11:46:16.284Z,35.22
2023-06-12T11:49:15.057Z,35.09
2023-06-12T11:50:16.467Z,35.06
2023-06-12T11:51:16.248Z,34.98
2023-06-12T11:52:15.820Z,35.04
2023-06-12T11:53:15.814Z,35.01
2023-06-12T11:54:16.518Z,34.96
2023-06-12T11:57:14.815Z,34.91
2023-06-12T11:58:18.053Z,34.86
2023-06-12T11:59:16.040Z,34.82
2023-06-12T12:00:16.708Z,34.85
2023-06-12T12:01:19.381Z,34.86
2023-06-12T12:02:16.149Z,34.72
2023-06-12T12:03:16.304Z,34.61
2023-06-12T12:04:16.093Z,34.73
2023-06-12T12:05:16.140Z,34.77
2023-06-12T12:06:16.088Z,34.80
2023-06-12T12:07:16.105Z,34.66
2023-06-12T12:08:16.214Z,34.62
2023-06-12T12:09:16.098Z,34.50
2023-06-12T12:10:16.376Z,34.55
2023-06-12T12:11:19.000Z,34.46
2023-06-12T12:12:16.326Z,34.50
2023-06-12T12:13:16.066Z,34.44
2023-06-12T12:14:16.064Z,34.39
2023-06-12T12:15:16.049Z,34.37
2023-06-12T12:16:16.101Z,34.35
2023-06-12T12:17:16.051Z,34.41
2023-06-12T12:18:16.301Z,34.34
2023-06-12T12:19:16.128Z,34.35
2023-06-12T12:20:16.388Z,34.38
2023-06-12T12:21:16.172Z,34.35
2023-06-12T12:22:16.225Z,34.35
2023-06-12T12:23:16.274Z,34.34
2023-06-12T12:24:16.377Z,34.35
2023-06-12T12:25:17.359Z,34.29
2023-06-12T12:26:16.432Z,34.39
2023-06-12T12:27:16.512Z,34.37
2023-06-12T12:28:16.560Z,34.38
2023-06-12T12:29:16.617Z,34.39
2023-06-12T12:30:17.027Z,34.41
2023-06-12T12:31:16.761Z,34.38
2023-06-12T12:32:16.795Z,34.38
2023-06-12T12:33:16.889Z,34.30
2023-06-12T12:34:16.979Z,34.29
2023-06-12T12:35:17.001Z,34.30
2023-06-12T12:36:17.074Z,34.30
2023-06-12T12:37:17.144Z,34.29
2023-06-12T12:38:17.208Z,34.26
2023-06-12T12:39:17.307Z,34.19
2023-06-12T12:40:17.344Z,34.12
2023-06-12T12:41:17.773Z,34.03
2023-06-12T12:42:18.046Z,34.02
2023-06-12T12:43:20.720Z,34.07
2023-06-12T12:44:17.523Z,34.09
2023-06-12T12:45:17.536Z,34.37
2023-06-12T12:46:17.541Z,34.47
2023-06-12T12:47:17.580Z,34.88
2023-06-12T12:48:17.639Z,35.76
2023-06-12T12:49:17.772Z,34.83
2023-06-12T12:50:22.576Z,35.30
2023-06-12T12:51:17.501Z,35.49
2023-06-12T12:52:32.921Z,35.35
2023-06-12T12:53:17.521Z,35.11
2023-06-12T12:54:17.516Z,35.00
2023-06-12T12:55:17.537Z,34.95
2023-06-12T12:56:17.548Z,35.12
2023-06-12T12:57:17.550Z,35.23
2023-06-12T12:58:19.085Z,35.28
2023-06-12T12:59:17.792Z,35.10
2023-06-12T13:00:17.764Z,35.13
2023-06-12T13:01:17.848Z,34.63
2023-06-12T13:02:17.800Z,34.58
2023-06-12T13:03:21.219Z,34.72
2023-06-12T13:04:17.865Z,34.85
2023-06-12T13:05:18.788Z,34.92
2023-06-12T13:06:17.839Z,34.89
2023-06-12T13:07:17.847Z,34.89
2023-06-12T13:08:17.863Z,34.83
2023-06-12T13:09:17.851Z,34.81
2023-06-12T13:10:17.879Z,34.76
2023-06-12T13:11:17.842Z,34.72
2023-06-12T13:12:17.845Z,34.72
2023-06-12T13:13:18.279Z,34.75